sensor_id;sensor_type;location;lat;lon;timestamp;P1;durP1;ratioP1;P2;durP2;ratioP2
24421;SDS011;12600;53.326;-6.298;2023-02-28T00:02:24;27.38;;;25.45;;
24421;SDS011;12600;53.326;-6.298;2023-02-28T00:05:15;27.63;;;25.95;;
24421;SDS011;12600;53.326;-6.298;2023-02-28T00:08:07;23.05;;;21.40;;
24421;SDS011;12600;53.326;-6.298;2023-02-28T00:11:01;27.00;;;25.05;;
24421;SDS011;12600;53.326;-6.298;2023-02-28T00:13:51;28.23;;;25.88;;
24421;SDS011;12600;53.326;-6.298;2023-02-28T00:16:40;26.58;;;24.45;;
24421;SDS011;12600;53.326;-6.298;2023-02-28T00:19:29;25.63;;;23.65;;
24421;SDS011;12600;53.326;-6.298;2023-02-28T00:22:19;22.95;;;21.05;;
24421;SDS011;12600;53.326;-6.298;2023-02-28T00:25:11;26.83;;;24.95;;
24421;SDS011;12600;53.326;-6.298;2023-02-28T00:28:03;27.85;;;26.20;;
24421;SDS011;12600;53.326;-6.298;2023-02-28T00:30:53;25.98;;;24.08;;
24421;SDS011;12600;53.326;-6.298;2023-02-28T00:33:42;20.27;;;18.55;;
24421;SDS011;12600;53.326;-6.298;2023-02-28T00:36:33;20.27;;;18.80;;
24421;SDS011;12600;53.326;-6.298;2023-02-28T00:39:24;19.05;;;17.70;;
24421;SDS011;12600;53.326;-6.298;2023-02-28T00:42:15;18.05;;;16.83;;
24421;SDS011;12600;53.326;-6.298;2023-02-28T00:45:09;19.98;;;18.48;;
24421;SDS011;12600;53.326;-6.298;2023-02-28T00:47:58;17.88;;;16.58;;
24421;SDS011;12600;53.326;-6.298;2023-02-28T00:50:48;19.27;;;17.60;;
24421;SDS011;12600;53.326;-6.298;2023-02-28T00:53:37;19.05;;;17.23;;
24421;SDS011;12600;53.326;-6.298;2023-02-28T00:56:27;17.58;;;16.45;;
24421;SDS011;12600;53.326;-6.298;2023-02-28T00:59:16;15.60;;;14.35;;
24421;SDS011;12600;53.326;-6.298;2023-02-28T01:02:07;32.92;;;20.00;;
24421;SDS011;12600;53.326;-6.298;2023-02-28T01:04:57;73.20;;;26.42;;
24421;SDS011;12600;53.326;-6.298;2023-02-28T01:07:49;56.17;;;29.00;;
24421;SDS011;12600;53.326;-6.298;2023-02-28T01:10:38;37.55;;;26.08;;
24421;SDS011;12600;53.326;-6.298;2023-02-28T01:13:28;22.98;;;17.50;;
24421;SDS011;12600;53.326;-6.298;2023-02-28T01:16:17;19.95;;;18.23;;
24421;SDS011;12600;53.326;-6.298;2023-02-28T01:19:08;18.00;;;13.88;;
24421;SDS011;12600;53.326;-6.298;2023-02-28T01:22:00;22.73;;;20.45;;
24421;SDS011;12600;53.326;-6.298;2023-02-28T01:24:50;22.83;;;20.58;;
24421;SDS011;12600;53.326;-6.298;2023-02-28T01:27:39;25.42;;;23.23;;
24421;SDS011;12600;53.326;-6.298;2023-02-28T01:30:29;23.15;;;21.17;;
24421;SDS011;12600;53.326;-6.298;2023-02-28T01:33:18;16.63;;;15.00;;
24421;SDS011;12600;53.326;-6.298;2023-02-28T01:36:10;13.50;;;12.25;;
24421;SDS011;12600;53.326;-6.298;2023-02-28T01:39:02;14.50;;;13.38;;
24421;SDS011;12600;53.326;-6.298;2023-02-28T01:41:52;14.70;;;13.70;;
24421;SDS011;12600;53.326;-6.298;2023-02-28T01:48:10;13.70;;;12.65;;
24421;SDS011;12600;53.326;-6.298;2023-02-28T01:51:00;15.27;;;13.80;;
24421;SDS011;12600;53.326;-6.298;2023-02-28T01:53:57;13.68;;;12.77;;
24421;SDS011;12600;53.326;-6.298;2023-02-28T01:56:51;13.38;;;12.45;;
24421;SDS011;12600;53.326;-6.298;2023-02-28T01:59:47;13.80;;;12.88;;
24421;SDS011;12600;53.326;-6.298;2023-02-28T02:02:43;12.75;;;11.82;;
24421;SDS011;12600;53.326;-6.298;2023-02-28T02:05:37;12.57;;;11.57;;
24421;SDS011;12600;53.326;-6.298;2023-02-28T02:08:28;13.93;;;12.20;;
24421;SDS011;12600;53.326;-6.298;2023-02-28T02:11:19;13.63;;;12.68;;
24421;SDS011;12600;53.326;-6.298;2023-02-28T02:14:27;12.43;;;11.35;;
24421;SDS011;12600;53.326;-6.298;2023-02-28T02:17:37;13.52;;;12.52;;
24421;SDS011;12600;53.326;-6.298;2023-02-28T02:20:46;13.70;;;12.70;;
24421;SDS011;12600;53.326;-6.298;2023-02-28T02:27:59;8.77;;;8.27;;
24421;SDS011;12600;53.326;-6.298;2023-02-28T02:31:20;14.07;;;12.75;;
24421;SDS011;12600;53.326;-6.298;2023-02-28T02:34:39;14.52;;;13.63;;
24421;SDS011;12600;53.326;-6.298;2023-02-28T02:37:40;12.75;;;11.88;;
24421;SDS011;12600;53.326;-6.298;2023-02-28T02:40:38;15.23;;;14.07;;
24421;SDS011;12600;53.326;-6.298;2023-02-28T02:43:35;15.95;;;14.82;;
24421;SDS011;12600;53.326;-6.298;2023-02-28T02:46:29;17.50;;;16.45;;
24421;SDS011;12600;53.326;-6.298;2023-02-28T02:49:24;14.13;;;13.18;;
24421;SDS011;12600;53.326;-6.298;2023-02-28T02:52:23;18.23;;;16.52;;
24421;SDS011;12600;53.326;-6.298;2023-02-28T02:55:21;15.15;;;14.02;;
24421;SDS011;12600;53.326;-6.298;2023-02-28T02:58:13;16.98;;;15.65;;
24421;SDS011;12600;53.326;-6.298;2023-02-28T03:01:07;15.00;;;13.93;;
24421;SDS011;12600;53.326;-6.298;2023-02-28T03:04:00;15.93;;;14.63;;
24421;SDS011;12600;53.326;-6.298;2023-02-28T03:06:53;17.58;;;16.40;;
24421;SDS011;12600;53.326;-6.298;2023-02-28T03:09:50;14.30;;;13.45;;
24421;SDS011;12600;53.326;-6.298;2023-02-28T03:12:41;16.13;;;15.00;;
24421;SDS011;12600;53.326;-6.298;2023-02-28T03:15:43;16.73;;;13.27;;
24421;SDS011;12600;53.326;-6.298;2023-02-28T03:18:51;14.85;;;13.73;;
24421;SDS011;12600;53.326;-6.298;2023-02-28T03:21:56;14.35;;;12.98;;
24421;SDS011;12600;53.326;-6.298;2023-02-28T03:25:04;13.55;;;12.25;;
24421;SDS011;12600;53.326;-6.298;2023-02-28T03:28:02;15.13;;;14.07;;
24421;SDS011;12600;53.326;-6.298;2023-02-28T03:30:58;13.48;;;11.93;;
24421;SDS011;12600;53.326;-6.298;2023-02-28T03:33:58;15.90;;;14.25;;
24421;SDS011;12600;53.326;-6.298;2023-02-28T03:36:52;15.35;;;14.15;;
24421;SDS011;12600;53.326;-6.298;2023-02-28T03:39:46;13.48;;;12.20;;
24421;SDS011;12600;53.326;-6.298;2023-02-28T03:42:45;14.43;;;13.38;;
24421;SDS011;12600;53.326;-6.298;2023-02-28T03:45:39;15.98;;;14.43;;
24421;SDS011;12600;53.326;-6.298;2023-02-28T03:48:32;15.02;;;14.13;;
24421;SDS011;12600;53.326;-6.298;2023-02-28T03:51:28;15.60;;;14.13;;
24421;SDS011;12600;53.326;-6.298;2023-02-28T03:54:21;17.10;;;15.90;;
24421;SDS011;12600;53.326;-6.298;2023-02-28T03:57:18;17.45;;;15.98;;
24421;SDS011;12600;53.326;-6.298;2023-02-28T04:00:17;15.57;;;14.23;;
24421;SDS011;12600;53.326;-6.298;2023-02-28T04:03:15;19.33;;;17.75;;
24421;SDS011;12600;53.326;-6.298;2023-02-28T04:06:04;18.90;;;17.48;;
24421;SDS011;12600;53.326;-6.298;2023-02-28T04:09:02;20.45;;;18.77;;
24421;SDS011;12600;53.326;-6.298;2023-02-28T04:11:53;17.40;;;16.07;;
24421;SDS011;12600;53.326;-6.298;2023-02-28T04:14:43;15.25;;;13.90;;
24421;SDS011;12600;53.326;-6.298;2023-02-28T04:17:34;15.23;;;14.23;;
24421;SDS011;12600;53.326;-6.298;2023-02-28T04:20:23;16.23;;;15.05;;
24421;SDS011;12600;53.326;-6.298;2023-02-28T04:23:12;16.23;;;14.80;;
24421;SDS011;12600;53.326;-6.298;2023-02-28T04:26:02;19.17;;;17.98;;
24421;SDS011;12600;53.326;-6.298;2023-02-28T04:28:53;17.70;;;16.23;;
24421;SDS011;12600;53.326;-6.298;2023-02-28T04:31:42;20.17;;;18.83;;
24421;SDS011;12600;53.326;-6.298;2023-02-28T04:34:33;18.48;;;17.20;;
24421;SDS011;12600;53.326;-6.298;2023-02-28T04:37:22;16.30;;;15.40;;
24421;SDS011;12600;53.326;-6.298;2023-02-28T04:40:15;17.48;;;16.08;;
24421;SDS011;12600;53.326;-6.298;2023-02-28T04:43:05;16.60;;;15.40;;
24421;SDS011;12600;53.326;-6.298;2023-02-28T04:45:54;14.52;;;13.60;;
24421;SDS011;12600;53.326;-6.298;2023-02-28T04:48:44;18.25;;;16.67;;
24421;SDS011;12600;53.326;-6.298;2023-02-28T04:51:35;19.50;;;18.20;;
24421;SDS011;12600;53.326;-6.298;2023-02-28T04:54:25;15.57;;;14.25;;
24421;SDS011;12600;53.326;-6.298;2023-02-28T04:57:15;24.40;;;22.75;;
24421;SDS011;12600;53.326;-6.298;2023-02-28T05:00:04;44.75;;;42.25;;
24421;SDS011;12600;53.326;-6.298;2023-02-28T05:02:58;55.83;;;52.72;;
24421;SDS011;12600;53.326;-6.298;2023-02-28T05:05:47;49.55;;;47.25;;
24421;SDS011;12600;53.326;-6.298;2023-02-28T05:08:38;57.92;;;55.08;;
24421;SDS011;12600;53.326;-6.298;2023-02-28T05:11:29;57.83;;;54.80;;
24421;SDS011;12600;53.326;-6.298;2023-02-28T05:14:22;63.10;;;59.88;;
24421;SDS011;12600;53.326;-6.298;2023-02-28T05:17:11;62.03;;;58.25;;
24421;SDS011;12600;53.326;-6.298;2023-02-28T05:20:00;32.30;;;30.30;;
24421;SDS011;12600;53.326;-6.298;2023-02-28T05:23:01;21.65;;;20.17;;
24421;SDS011;12600;53.326;-6.298;2023-02-28T05:25:51;23.45;;;22.15;;
24421;SDS011;12600;53.326;-6.298;2023-02-28T05:28:41;22.30;;;21.00;;
24421;SDS011;12600;53.326;-6.298;2023-02-28T05:31:30;20.90;;;19.60;;
24421;SDS011;12600;53.326;-6.298;2023-02-28T05:34:20;22.33;;;20.90;;
24421;SDS011;12600;53.326;-6.298;2023-02-28T05:37:11;19.85;;;18.52;;
24421;SDS011;12600;53.326;-6.298;2023-02-28T05:40:01;25.80;;;24.40;;
24421;SDS011;12600;53.326;-6.298;2023-02-28T05:42:54;20.88;;;19.70;;
24421;SDS011;12600;53.326;-6.298;2023-02-28T05:45:43;18.15;;;17.05;;
24421;SDS011;12600;53.326;-6.298;2023-02-28T05:48:32;18.67;;;17.48;;
24421;SDS011;12600;53.326;-6.298;2023-02-28T05:51:22;21.40;;;20.00;;
24421;SDS011;12600;53.326;-6.298;2023-02-28T05:54:12;19.17;;;18.08;;
24421;SDS011;12600;53.326;-6.298;2023-02-28T05:57:01;19.45;;;17.83;;
24421;SDS011;12600;53.326;-6.298;2023-02-28T06:00:00;20.63;;;19.42;;
24421;SDS011;12600;53.326;-6.298;2023-02-28T06:02:58;20.60;;;19.23;;
24421;SDS011;12600;53.326;-6.298;2023-02-28T06:05:49;25.05;;;23.23;;
24421;SDS011;12600;53.326;-6.298;2023-02-28T06:08:38;27.80;;;26.08;;
24421;SDS011;12600;53.326;-6.298;2023-02-28T06:11:27;27.30;;;25.50;;
24421;SDS011;12600;53.326;-6.298;2023-02-28T06:14:18;31.58;;;29.77;;
24421;SDS011;12600;53.326;-6.298;2023-02-28T06:17:09;30.42;;;28.50;;
24421;SDS011;12600;53.326;-6.298;2023-02-28T06:20:06;33.92;;;31.77;;
24421;SDS011;12600;53.326;-6.298;2023-02-28T06:22:57;45.63;;;42.90;;
24421;SDS011;12600;53.326;-6.298;2023-02-28T06:25:47;43.35;;;40.90;;
24421;SDS011;12600;53.326;-6.298;2023-02-28T06:28:37;50.53;;;47.45;;
24421;SDS011;12600;53.326;-6.298;2023-02-28T06:31:26;48.20;;;45.63;;
24421;SDS011;12600;53.326;-6.298;2023-02-28T06:34:18;51.40;;;48.90;;
24421;SDS011;12600;53.326;-6.298;2023-02-28T06:37:07;48.00;;;45.33;;
24421;SDS011;12600;53.326;-6.298;2023-02-28T06:39:59;55.63;;;52.67;;
24421;SDS011;12600;53.326;-6.298;2023-02-28T06:45:42;52.72;;;49.65;;
24421;SDS011;12600;53.326;-6.298;2023-02-28T06:48:32;55.78;;;52.78;;
24421;SDS011;12600;53.326;-6.298;2023-02-28T06:51:25;58.33;;;54.78;;
24421;SDS011;12600;53.326;-6.298;2023-02-28T06:54:18;55.60;;;52.67;;
24421;SDS011;12600;53.326;-6.298;2023-02-28T06:57:07;58.70;;;55.42;;
24421;SDS011;12600;53.326;-6.298;2023-02-28T06:59:57;77.03;;;72.07;;
24421;SDS011;12600;53.326;-6.298;2023-02-28T07:02:47;58.75;;;55.58;;
24421;SDS011;12600;53.326;-6.298;2023-02-28T07:05:37;62.95;;;59.35;;
24421;SDS011;12600;53.326;-6.298;2023-02-28T07:08:29;62.22;;;58.97;;
24421;SDS011;12600;53.326;-6.298;2023-02-28T07:11:23;56.50;;;53.45;;
24421;SDS011;12600;53.326;-6.298;2023-02-28T07:14:15;57.17;;;54.05;;
24421;SDS011;12600;53.326;-6.298;2023-02-28T07:17:06;53.47;;;50.65;;
24421;SDS011;12600;53.326;-6.298;2023-02-28T07:19:56;57.42;;;54.40;;
24421;SDS011;12600;53.326;-6.298;2023-02-28T07:22:45;57.67;;;54.30;;
24421;SDS011;12600;53.326;-6.298;2023-02-28T07:25:43;54.63;;;50.88;;
24421;SDS011;12600;53.326;-6.298;2023-02-28T07:28:33;51.45;;;48.25;;
24421;SDS011;12600;53.326;-6.298;2023-02-28T07:31:23;58.63;;;55.15;;
24421;SDS011;12600;53.326;-6.298;2023-02-28T07:34:12;54.90;;;51.55;;
24421;SDS011;12600;53.326;-6.298;2023-02-28T07:37:01;53.90;;;50.95;;
24421;SDS011;12600;53.326;-6.298;2023-02-28T07:39:52;53.50;;;50.38;;
24421;SDS011;12600;53.326;-6.298;2023-02-28T07:42:43;54.28;;;50.97;;
24421;SDS011;12600;53.326;-6.298;2023-02-28T07:45:36;64.78;;;60.83;;
24421;SDS011;12600;53.326;-6.298;2023-02-28T07:48:25;55.17;;;51.97;;
24421;SDS011;12600;53.326;-6.298;2023-02-28T07:51:14;62.35;;;58.83;;
24421;SDS011;12600;53.326;-6.298;2023-02-28T07:54:04;50.65;;;47.65;;
24421;SDS011;12600;53.326;-6.298;2023-02-28T07:56:54;43.67;;;41.15;;
24421;SDS011;12600;53.326;-6.298;2023-02-28T07:59:45;39.67;;;37.80;;
24421;SDS011;12600;53.326;-6.298;2023-02-28T08:02:35;41.00;;;38.38;;
24421;SDS011;12600;53.326;-6.298;2023-02-28T08:05:24;43.58;;;41.28;;
24421;SDS011;12600;53.326;-6.298;2023-02-28T08:08:14;40.22;;;38.17;;
24421;SDS011;12600;53.326;-6.298;2023-02-28T08:11:04;40.13;;;37.67;;
24421;SDS011;12600;53.326;-6.298;2023-02-28T08:13:54;32.00;;;30.20;;
24421;SDS011;12600;53.326;-6.298;2023-02-28T08:16:44;34.80;;;33.08;;
24421;SDS011;12600;53.326;-6.298;2023-02-28T08:19:34;28.33;;;26.35;;
24421;SDS011;12600;53.326;-6.298;2023-02-28T08:22:23;23.40;;;21.95;;
24421;SDS011;12600;53.326;-6.298;2023-02-28T08:25:12;23.30;;;22.00;;
24421;SDS011;12600;53.326;-6.298;2023-02-28T08:28:02;27.27;;;25.88;;
24421;SDS011;12600;53.326;-6.298;2023-02-28T08:30:52;24.70;;;22.80;;
24421;SDS011;12600;53.326;-6.298;2023-02-28T08:33:43;20.70;;;19.55;;
24421;SDS011;12600;53.326;-6.298;2023-02-28T08:36:35;19.42;;;18.20;;
24421;SDS011;12600;53.326;-6.298;2023-02-28T08:39:25;16.15;;;14.95;;
24421;SDS011;12600;53.326;-6.298;2023-02-28T08:42:14;15.05;;;14.05;;
24421;SDS011;12600;53.326;-6.298;2023-02-28T08:45:04;18.13;;;16.95;;
24421;SDS011;12600;53.326;-6.298;2023-02-28T08:47:55;18.38;;;16.67;;
24421;SDS011;12600;53.326;-6.298;2023-02-28T08:50:53;14.68;;;13.48;;
24421;SDS011;12600;53.326;-6.298;2023-02-28T08:53:53;18.63;;;17.27;;
24421;SDS011;12600;53.326;-6.298;2023-02-28T08:56:46;16.45;;;15.50;;
24421;SDS011;12600;53.326;-6.298;2023-02-28T08:59:36;10.90;;;9.88;;
24421;SDS011;12600;53.326;-6.298;2023-02-28T09:02:25;16.80;;;15.70;;
24421;SDS011;12600;53.326;-6.298;2023-02-28T09:05:14;14.38;;;13.35;;
24421;SDS011;12600;53.326;-6.298;2023-02-28T09:08:05;19.20;;;17.80;;
24421;SDS011;12600;53.326;-6.298;2023-02-28T09:10:55;17.60;;;16.38;;
24421;SDS011;12600;53.326;-6.298;2023-02-28T09:13:47;16.77;;;15.63;;
24421;SDS011;12600;53.326;-6.298;2023-02-28T09:16:36;18.60;;;17.50;;
24421;SDS011;12600;53.326;-6.298;2023-02-28T09:19:26;19.42;;;18.30;;
24421;SDS011;12600;53.326;-6.298;2023-02-28T09:22:15;12.02;;;11.32;;
24421;SDS011;12600;53.326;-6.298;2023-02-28T09:25:06;14.95;;;13.98;;
24421;SDS011;12600;53.326;-6.298;2023-02-28T09:27:56;13.73;;;12.90;;
24421;SDS011;12600;53.326;-6.298;2023-02-28T09:30:46;13.15;;;12.27;;
24421;SDS011;12600;53.326;-6.298;2023-02-28T09:33:37;14.95;;;14.00;;
24421;SDS011;12600;53.326;-6.298;2023-02-28T09:36:26;12.55;;;11.65;;
24421;SDS011;12600;53.326;-6.298;2023-02-28T09:39:29;17.27;;;16.27;;
24421;SDS011;12600;53.326;-6.298;2023-02-28T09:42:21;15.70;;;14.80;;
24421;SDS011;12600;53.326;-6.298;2023-02-28T09:45:19;16.58;;;15.77;;
24421;SDS011;12600;53.326;-6.298;2023-02-28T09:48:14;16.15;;;15.20;;
24421;SDS011;12600;53.326;-6.298;2023-02-28T09:51:11;17.13;;;15.75;;
24421;SDS011;12600;53.326;-6.298;2023-02-28T09:54:11;16.17;;;15.32;;
24421;SDS011;12600;53.326;-6.298;2023-02-28T09:57:07;27.00;;;25.23;;
24421;SDS011;12600;53.326;-6.298;2023-02-28T10:00:06;19.77;;;18.80;;
24421;SDS011;12600;53.326;-6.298;2023-02-28T10:03:09;14.48;;;13.52;;
24421;SDS011;12600;53.326;-6.298;2023-02-28T10:06:14;12.35;;;11.55;;
24421;SDS011;12600;53.326;-6.298;2023-02-28T10:09:07;19.08;;;18.13;;
24421;SDS011;12600;53.326;-6.298;2023-02-28T10:12:02;20.00;;;18.50;;
24421;SDS011;12600;53.326;-6.298;2023-02-28T10:14:56;43.95;;;41.50;;
24421;SDS011;12600;53.326;-6.298;2023-02-28T10:17:51;14.38;;;13.45;;
24421;SDS011;12600;53.326;-6.298;2023-02-28T10:20:54;17.08;;;16.10;;
24421;SDS011;12600;53.326;-6.298;2023-02-28T10:23:45;23.92;;;22.42;;
24421;SDS011;12600;53.326;-6.298;2023-02-28T10:26:36;22.17;;;20.92;;
24421;SDS011;12600;53.326;-6.298;2023-02-28T10:29:25;19.13;;;18.00;;
24421;SDS011;12600;53.326;-6.298;2023-02-28T10:32:17;21.83;;;20.52;;
24421;SDS011;12600;53.326;-6.298;2023-02-28T10:35:15;20.95;;;19.98;;
24421;SDS011;12600;53.326;-6.298;2023-02-28T10:38:10;22.85;;;21.70;;
24421;SDS011;12600;53.326;-6.298;2023-02-28T10:41:06;24.08;;;22.88;;
24421;SDS011;12600;53.326;-6.298;2023-02-28T10:44:12;19.42;;;18.23;;
24421;SDS011;12600;53.326;-6.298;2023-02-28T10:47:12;17.55;;;16.73;;
24421;SDS011;12600;53.326;-6.298;2023-02-28T10:50:05;19.15;;;17.95;;
24421;SDS011;12600;53.326;-6.298;2023-02-28T10:53:24;12.15;;;11.50;;
24421;SDS011;12600;53.326;-6.298;2023-02-28T10:56:41;17.17;;;16.17;;
24421;SDS011;12600;53.326;-6.298;2023-02-28T10:59:30;26.27;;;24.95;;
24421;SDS011;12600;53.326;-6.298;2023-02-28T11:02:31;25.55;;;24.40;;
24421;SDS011;12600;53.326;-6.298;2023-02-28T11:05:24;20.30;;;19.30;;
24421;SDS011;12600;53.326;-6.298;2023-02-28T11:08:16;24.48;;;23.27;;
24421;SDS011;12600;53.326;-6.298;2023-02-28T11:11:07;29.73;;;28.15;;
24421;SDS011;12600;53.326;-6.298;2023-02-28T11:13:57;22.90;;;21.60;;
24421;SDS011;12600;53.326;-6.298;2023-02-28T11:16:53;25.60;;;24.23;;
24421;SDS011;12600;53.326;-6.298;2023-02-28T11:19:46;22.48;;;21.08;;
24421;SDS011;12600;53.326;-6.298;2023-02-28T11:22:43;22.38;;;21.40;;
24421;SDS011;12600;53.326;-6.298;2023-02-28T11:25:35;18.55;;;17.63;;
24421;SDS011;12600;53.326;-6.298;2023-02-28T11:28:28;27.33;;;26.10;;
24421;SDS011;12600;53.326;-6.298;2023-02-28T11:31:20;31.35;;;29.75;;
24421;SDS011;12600;53.326;-6.298;2023-02-28T11:34:22;38.70;;;36.90;;
24421;SDS011;12600;53.326;-6.298;2023-02-28T11:37:15;28.67;;;27.00;;
24421;SDS011;12600;53.326;-6.298;2023-02-28T11:40:09;31.48;;;30.08;;
24421;SDS011;12600;53.326;-6.298;2023-02-28T11:43:06;32.78;;;31.15;;
24421;SDS011;12600;53.326;-6.298;2023-02-28T11:46:13;31.70;;;30.20;;
24421;SDS011;12600;53.326;-6.298;2023-02-28T11:49:18;37.05;;;34.92;;
24421;SDS011;12600;53.326;-6.298;2023-02-28T11:52:20;30.65;;;29.27;;
24421;SDS011;12600;53.326;-6.298;2023-02-28T11:55:20;32.08;;;30.17;;
24421;SDS011;12600;53.326;-6.298;2023-02-28T11:58:27;34.50;;;32.75;;
24421;SDS011;12600;53.326;-6.298;2023-02-28T12:01:43;42.25;;;40.10;;
24421;SDS011;12600;53.326;-6.298;2023-02-28T12:05:17;26.80;;;25.45;;
24421;SDS011;12600;53.326;-6.298;2023-02-28T12:08:20;25.20;;;23.83;;
24421;SDS011;12600;53.326;-6.298;2023-02-28T12:11:29;30.40;;;28.60;;
24421;SDS011;12600;53.326;-6.298;2023-02-28T12:18:21;33.80;;;32.10;;
24421;SDS011;12600;53.326;-6.298;2023-02-28T12:21:28;31.63;;;29.95;;
24421;SDS011;12600;53.326;-6.298;2023-02-28T12:27:57;32.45;;;30.75;;
24421;SDS011;12600;53.326;-6.298;2023-02-28T12:30:49;37.83;;;35.85;;
24421;SDS011;12600;53.326;-6.298;2023-02-28T12:33:49;44.65;;;42.05;;
24421;SDS011;12600;53.326;-6.298;2023-02-28T12:36:41;35.40;;;33.33;;
24421;SDS011;12600;53.326;-6.298;2023-02-28T12:39:34;46.65;;;44.15;;
24421;SDS011;12600;53.326;-6.298;2023-02-28T12:42:38;56.83;;;53.55;;
24421;SDS011;12600;53.326;-6.298;2023-02-28T12:45:38;35.67;;;33.75;;
24421;SDS011;12600;53.326;-6.298;2023-02-28T12:48:40;31.20;;;29.52;;
24421;SDS011;12600;53.326;-6.298;2023-02-28T12:51:36;32.75;;;31.10;;
24421;SDS011;12600;53.326;-6.298;2023-02-28T12:54:28;32.20;;;30.70;;
24421;SDS011;12600;53.326;-6.298;2023-02-28T12:57:25;32.33;;;30.63;;
24421;SDS011;12600;53.326;-6.298;2023-02-28T13:00:24;29.85;;;28.35;;
24421;SDS011;12600;53.326;-6.298;2023-02-28T13:03:30;33.20;;;31.58;;
24421;SDS011;12600;53.326;-6.298;2023-02-28T13:06:52;30.48;;;29.08;;
24421;SDS011;12600;53.326;-6.298;2023-02-28T13:09:59;33.00;;;31.13;;
24421;SDS011;12600;53.326;-6.298;2023-02-28T13:12:53;31.67;;;30.20;;
24421;SDS011;12600;53.326;-6.298;2023-02-28T13:15:56;31.90;;;30.10;;
24421;SDS011;12600;53.326;-6.298;2023-02-28T13:18:49;34.53;;;32.72;;
24421;SDS011;12600;53.326;-6.298;2023-02-28T13:21:43;36.15;;;34.38;;
24421;SDS011;12600;53.326;-6.298;2023-02-28T13:24:47;38.15;;;35.90;;
24421;SDS011;12600;53.326;-6.298;2023-02-28T13:27:39;32.40;;;30.42;;
24421;SDS011;12600;53.326;-6.298;2023-02-28T13:34:13;34.03;;;31.90;;
24421;SDS011;12600;53.326;-6.298;2023-02-28T13:40:29;35.28;;;32.67;;
24421;SDS011;12600;53.326;-6.298;2023-02-28T13:43:24;41.38;;;38.85;;
24421;SDS011;12600;53.326;-6.298;2023-02-28T13:50:27;42.78;;;40.40;;
24421;SDS011;12600;53.326;-6.298;2023-02-28T13:53:30;36.70;;;34.58;;
24421;SDS011;12600;53.326;-6.298;2023-02-28T13:56:45;32.63;;;31.05;;
24421;SDS011;12600;53.326;-6.298;2023-02-28T13:59:49;39.13;;;37.22;;
24421;SDS011;12600;53.326;-6.298;2023-02-28T14:06:22;32.28;;;30.38;;
24421;SDS011;12600;53.326;-6.298;2023-02-28T14:09:17;35.60;;;33.67;;
24421;SDS011;12600;53.326;-6.298;2023-02-28T14:15:48;31.13;;;29.35;;
24421;SDS011;12600;53.326;-6.298;2023-02-28T14:18:48;29.55;;;27.63;;
24421;SDS011;12600;53.326;-6.298;2023-02-28T14:21:45;34.83;;;32.80;;
24421;SDS011;12600;53.326;-6.298;2023-02-28T14:24:59;35.65;;;33.95;;
24421;SDS011;12600;53.326;-6.298;2023-02-28T14:28:10;40.22;;;38.13;;
24421;SDS011;12600;53.326;-6.298;2023-02-28T14:31:09;31.42;;;29.73;;
24421;SDS011;12600;53.326;-6.298;2023-02-28T14:34:13;34.33;;;32.40;;
24421;SDS011;12600;53.326;-6.298;2023-02-28T14:37:20;30.02;;;28.40;;
24421;SDS011;12600;53.326;-6.298;2023-02-28T14:40:17;43.88;;;41.47;;
24421;SDS011;12600;53.326;-6.298;2023-02-28T14:43:19;35.17;;;33.05;;
24421;SDS011;12600;53.326;-6.298;2023-02-28T14:46:11;37.28;;;34.88;;
24421;SDS011;12600;53.326;-6.298;2023-02-28T14:49:03;28.63;;;27.17;;
24421;SDS011;12600;53.326;-6.298;2023-02-28T14:52:01;32.60;;;30.58;;
24421;SDS011;12600;53.326;-6.298;2023-02-28T14:55:03;27.65;;;26.30;;
24421;SDS011;12600;53.326;-6.298;2023-02-28T14:58:00;30.63;;;28.88;;
24421;SDS011;12600;53.326;-6.298;2023-02-28T15:01:09;32.33;;;30.45;;
24421;SDS011;12600;53.326;-6.298;2023-02-28T15:04:01;29.75;;;28.10;;
24421;SDS011;12600;53.326;-6.298;2023-02-28T15:07:08;30.08;;;28.50;;
24421;SDS011;12600;53.326;-6.298;2023-02-28T15:10:09;33.22;;;31.15;;
24421;SDS011;12600;53.326;-6.298;2023-02-28T15:13:06;32.55;;;29.92;;
24421;SDS011;12600;53.326;-6.298;2023-02-28T15:16:00;40.85;;;38.20;;
24421;SDS011;12600;53.326;-6.298;2023-02-28T15:18:54;32.40;;;30.60;;
24421;SDS011;12600;53.326;-6.298;2023-02-28T15:21:48;33.80;;;31.52;;
24421;SDS011;12600;53.326;-6.298;2023-02-28T15:24:41;35.22;;;32.92;;
24421;SDS011;12600;53.326;-6.298;2023-02-28T15:27:33;36.50;;;34.15;;
24421;SDS011;12600;53.326;-6.298;2023-02-28T15:30:33;36.85;;;34.72;;
24421;SDS011;12600;53.326;-6.298;2023-02-28T15:33:24;29.25;;;27.60;;
24421;SDS011;12600;53.326;-6.298;2023-02-28T15:36:17;32.97;;;31.30;;
24421;SDS011;12600;53.326;-6.298;2023-02-28T15:39:18;36.75;;;34.58;;
24421;SDS011;12600;53.326;-6.298;2023-02-28T15:42:09;29.17;;;27.23;;
24421;SDS011;12600;53.326;-6.298;2023-02-28T15:44:59;28.92;;;27.27;;
24421;SDS011;12600;53.326;-6.298;2023-02-28T15:47:49;33.17;;;31.23;;
24421;SDS011;12600;53.326;-6.298;2023-02-28T15:53:33;35.05;;;32.95;;
24421;SDS011;12600;53.326;-6.298;2023-02-28T15:56:26;32.83;;;30.92;;
24421;SDS011;12600;53.326;-6.298;2023-02-28T15:59:19;36.03;;;33.85;;
24421;SDS011;12600;53.326;-6.298;2023-02-28T16:02:13;30.08;;;28.27;;
24421;SDS011;12600;53.326;-6.298;2023-02-28T16:05:18;30.88;;;29.10;;
24421;SDS011;12600;53.326;-6.298;2023-02-28T16:08:15;29.05;;;27.23;;
24421;SDS011;12600;53.326;-6.298;2023-02-28T16:11:07;27.88;;;26.10;;
24421;SDS011;12600;53.326;-6.298;2023-02-28T16:13:57;26.70;;;25.10;;
24421;SDS011;12600;53.326;-6.298;2023-02-28T16:16:47;27.63;;;26.13;;
24421;SDS011;12600;53.326;-6.298;2023-02-28T16:19:39;28.70;;;26.55;;
24421;SDS011;12600;53.326;-6.298;2023-02-28T16:22:28;27.75;;;26.23;;
24421;SDS011;12600;53.326;-6.298;2023-02-28T16:25:18;42.40;;;40.10;;
24421;SDS011;12600;53.326;-6.298;2023-02-28T16:28:15;25.98;;;24.38;;
24421;SDS011;12600;53.326;-6.298;2023-02-28T16:31:09;26.38;;;24.15;;
24421;SDS011;12600;53.326;-6.298;2023-02-28T16:34:04;26.20;;;24.50;;
24421;SDS011;12600;53.326;-6.298;2023-02-28T16:36:54;31.45;;;29.83;;
24421;SDS011;12600;53.326;-6.298;2023-02-28T16:39:44;35.17;;;33.25;;
24421;SDS011;12600;53.326;-6.298;2023-02-28T16:42:36;25.95;;;24.35;;
24421;SDS011;12600;53.326;-6.298;2023-02-28T16:45:28;30.25;;;28.42;;
24421;SDS011;12600;53.326;-6.298;2023-02-28T16:48:17;35.45;;;33.42;;
24421;SDS011;12600;53.326;-6.298;2023-02-28T16:51:10;26.88;;;25.42;;
24421;SDS011;12600;53.326;-6.298;2023-02-28T16:54:00;25.20;;;23.60;;
24421;SDS011;12600;53.326;-6.298;2023-02-28T16:56:50;39.88;;;37.72;;
24421;SDS011;12600;53.326;-6.298;2023-02-28T16:59:39;26.52;;;24.60;;
24421;SDS011;12600;53.326;-6.298;2023-02-28T17:02:30;30.20;;;28.30;;
24421;SDS011;12600;53.326;-6.298;2023-02-28T17:05:19;34.63;;;31.85;;
24421;SDS011;12600;53.326;-6.298;2023-02-28T17:08:09;29.52;;;27.50;;
24421;SDS011;12600;53.326;-6.298;2023-02-28T17:10:59;32.83;;;30.35;;
24421;SDS011;12600;53.326;-6.298;2023-02-28T17:13:49;34.92;;;32.00;;
24421;SDS011;12600;53.326;-6.298;2023-02-28T17:16:40;34.38;;;31.85;;
24421;SDS011;12600;53.326;-6.298;2023-02-28T17:19:31;32.58;;;30.38;;
24421;SDS011;12600;53.326;-6.298;2023-02-28T17:22:23;28.80;;;27.08;;
24421;SDS011;12600;53.326;-6.298;2023-02-28T17:25:13;29.33;;;27.35;;